createdAt,value
2018-09-27T00:00:03.886Z,0.00
2018-09-27T00:01:03.758Z,0.00
2018-09-27T00:02:03.633Z,0.00
2018-09-27T00:03:03.504Z,0.00
2018-09-27T00:04:03.382Z,0.00
2018-09-27T00:05:03.253Z,0.00
2018-09-27T00:06:03.125Z,0.00
2018-09-27T00:07:03.000Z,0.00
2018-09-27T00:08:02.873Z,0.00
2018-09-27T00:09:02.746Z,0.00
2018-09-27T00:10:02.617Z,0.00
2018-09-27T00:11:02.496Z,0.00
2018-09-27T00:12:02.364Z,0.00
2018-09-27T00:13:02.243Z,0.00
2018-09-27T00:14:02.134Z,0.00
2018-09-27T00:15:01.985Z,0.00
2018-09-27T00:16:01.857Z,0.00
2018-09-27T00:17:01.734Z,0.00
2018-09-27T00:18:01.606Z,0.00
2018-09-27T00:19:01.480Z,0.00
2018-09-27T00:20:01.352Z,0.00
2018-09-27T00:21:01.228Z,0.00
2018-09-27T00:22:01.101Z,0.00
2018-09-27T00:23:00.971Z,0.00
2018-09-27T00:24:00.846Z,0.00
2018-09-27T00:25:00.721Z,0.00
2018-09-27T00:26:00.590Z,0.00
2018-09-27T00:27:00.465Z,0.00
2018-09-27T00:28:00.339Z,0.00
2018-09-27T00:29:00.213Z,0.00
2018-09-27T00:30:00.089Z,0.00
2018-09-27T00:30:59.957Z,0.00
2018-09-27T00:31:59.831Z,0.00
2018-09-27T00:32:59.705Z,0.00
2018-09-27T00:33:59.579Z,0.00
2018-09-27T00:34:59.454Z,0.00
2018-09-27T00:35:59.324Z,0.00
2018-09-27T00:36:59.198Z,0.00
2018-09-27T00:37:59.071Z,0.00
2018-09-27T00:38:58.944Z,0.00
2018-09-27T00:39:58.820Z,0.00
2018-09-27T00:40:58.689Z,0.00
2018-09-27T00:41:58.565Z,0.00
2018-09-27T00:42:58.438Z,0.00
2018-09-27T00:43:58.310Z,0.00
2018-09-27T00:44:58.183Z,0.00
2018-09-27T00:45:58.060Z,0.00
2018-09-27T00:46:57.931Z,0.00
2018-09-27T00:47:57.804Z,0.00
2018-09-27T00:48:57.684Z,0.00
2018-09-27T00:49:57.563Z,0.00
2018-09-27T00:50:57.423Z,0.00
2018-09-27T00:51:57.295Z,0.00
2018-09-27T00:52:57.169Z,0.00
2018-09-27T00:53:57.042Z,0.00
2018-09-27T00:54:56.922Z,0.00
2018-09-27T00:55:56.787Z,0.00
2018-09-27T00:56:56.663Z,0.00
2018-09-27T00:57:56.536Z,0.00
2018-09-27T00:58:56.411Z,0.00
2018-09-27T00:59:56.282Z,0.00
2018-09-27T01:00:56.156Z,0.00
2018-09-27T01:01:56.030Z,0.00
2018-09-27T01:02:55.905Z,0.00
2018-09-27T01:03:55.776Z,0.00
2018-09-27T01:04:55.649Z,0.00
2018-09-27T01:05:55.521Z,0.00
2018-09-27T01:06:55.397Z,0.00
2018-09-27T01:07:55.268Z,0.00
2018-09-27T01:08:55.142Z,0.00
2018-09-27T01:09:55.016Z,0.00
2018-09-27T01:10:54.892Z,0.00
2018-09-27T01:11:54.761Z,0.00
2018-09-27T01:12:54.633Z,0.00
2018-09-27T01:13:54.511Z,0.00
2018-09-27T01:14:54.381Z,0.00
2018-09-27T01:15:54.258Z,0.00
2018-09-27T01:16:54.128Z,0.00
2018-09-27T01:17:53.999Z,0.00
2018-09-27T01:18:53.872Z,0.00
2018-09-27T01:19:53.746Z,0.00
2018-09-27T01:20:53.619Z,0.00
2018-09-27T01:21:53.491Z,0.00
2018-09-27T01:22:53.366Z,0.00
2018-09-27T01:23:53.238Z,0.00
2018-09-27T01:24:53.114Z,0.00
2018-09-27T01:25:52.985Z,0.00
2018-09-27T01:26:52.860Z,0.00
2018-09-27T01:27:52.745Z,0.00
2018-09-27T01:28:52.603Z,0.00
2018-09-27T01:29:52.477Z,0.00
2018-09-27T01:30:52.351Z,0.00
2018-09-27T01:31:52.224Z,0.00
2018-09-27T01:32:52.098Z,0.00
2018-09-27T01:33:51.969Z,0.00
2018-09-27T01:34:51.844Z,0.00
2018-09-27T01:35:51.718Z,0.00
2018-09-27T01:36:51.591Z,0.00
2018-09-27T01:37:51.495Z,0.00
2018-09-27T01:38:51.338Z,0.00
2018-09-27T01:39:51.210Z,0.00
2018-09-27T01:40:51.082Z,0.00
2018-09-27T01:41:50.958Z,0.00
2018-09-27T01:42:50.828Z,0.00
2018-09-27T01:43:50.704Z,0.00
2018-09-27T01:44:50.576Z,0.00
2018-09-27T01:45:50.450Z,0.00
2018-09-27T01:46:50.325Z,0.00
2018-09-27T01:47:50.195Z,0.00
2018-09-27T01:48:50.068Z,0.00
2018-09-27T01:49:49.942Z,0.00
2018-09-27T01:50:49.818Z,0.00
2018-09-27T01:51:49.688Z,0.00
2018-09-27T01:52:49.566Z,0.00
2018-09-27T01:53:49.434Z,0.00
2018-09-27T01:54:49.309Z,0.00
2018-09-27T01:55:49.182Z,0.00
2018-09-27T01:56:49.055Z,0.00
2018-09-27T01:57:48.928Z,0.00
2018-09-27T01:58:48.801Z,0.00
2018-09-27T01:59:48.673Z,0.00
2018-09-27T02:00:48.546Z,0.00
2018-09-27T02:01:48.421Z,0.00
2018-09-27T02:02:48.294Z,0.00
2018-09-27T02:03:48.165Z,0.00
2018-09-27T02:04:48.038Z,0.00
2018-09-27T02:05:47.914Z,0.00
2018-09-27T02:06:47.786Z,0.00
2018-09-27T02:07:47.657Z,0.00
2018-09-27T02:08:47.532Z,0.00
2018-09-27T02:09:47.406Z,0.00
2018-09-27T02:10:47.280Z,0.00
2018-09-27T02:11:47.153Z,0.00
2018-09-27T02:12:47.027Z,0.00
2018-09-27T02:13:46.900Z,0.00
2018-09-27T02:14:46.771Z,0.00
2018-09-27T02:15:46.642Z,0.00
2018-09-27T02:16:46.517Z,0.00
2018-09-27T02:17:46.394Z,0.00
2018-09-27T02:18:46.264Z,0.00
2018-09-27T02:19:46.137Z,0.00
2018-09-27T02:20:46.010Z,0.00
2018-09-27T02:21:45.884Z,0.00
2018-09-27T02:22:45.756Z,0.00
2018-09-27T02:23:45.628Z,0.00
2018-09-27T02:24:45.502Z,0.00
2018-09-27T02:25:45.375Z,0.00
2018-09-27T02:26:45.248Z,0.00
2018-09-27T02:27:45.121Z,0.00
2018-09-27T02:28:44.995Z,0.00
2018-09-27T02:29:44.871Z,0.00
2018-09-27T02:30:44.740Z,0.00
2018-09-27T02:31:44.613Z,0.00
2018-09-27T02:32:44.486Z,0.00
2018-09-27T02:33:44.359Z,0.00
2018-09-27T02:34:44.233Z,0.00
2018-09-27T02:35:44.107Z,0.00
2018-09-27T02:36:43.980Z,0.00
2018-09-27T02:37:43.851Z,0.00
2018-09-27T02:38:43.726Z,0.00
2018-09-27T02:39:43.602Z,0.00
2018-09-27T02:40:43.534Z,0.00
2018-09-27T02:41:43.345Z,0.00
2018-09-27T02:42:43.218Z,0.00
2018-09-27T02:43:43.091Z,0.00
2018-09-27T02:44:42.965Z,0.00
2018-09-27T02:45:42.836Z,0.00
2018-09-27T02:46:42.711Z,0.00
2018-09-27T02:47:42.584Z,0.00
2018-09-27T02:48:42.462Z,0.00
2018-09-27T02:49:42.329Z,0.00
2018-09-27T02:50:42.203Z,0.00
2018-09-27T02:51:42.074Z,0.00
2018-09-27T02:52:41.947Z,0.00
2018-09-27T02:53:41.825Z,0.00
2018-09-27T02:54:41.695Z,0.00
2018-09-27T02:55:41.566Z,0.00
2018-09-27T02:56:41.441Z,0.00
2018-09-27T02:57:41.312Z,0.00
2018-09-27T02:58:41.186Z,0.00
2018-09-27T02:59:41.060Z,0.00
2018-09-27T03:00:40.933Z,0.00
2018-09-27T03:01:40.809Z,0.00
2018-09-27T03:02:40.679Z,0.00
2018-09-27T03:03:40.552Z,0.00
2018-09-27T03:04:40.426Z,0.00
2018-09-27T03:05:40.301Z,0.00
2018-09-27T03:06:40.173Z,0.00
2018-09-27T03:07:40.042Z,0.00
2018-09-27T03:08:39.916Z,0.00
2018-09-27T03:09:39.790Z,0.00
2018-09-27T03:10:39.676Z,0.00
2018-09-27T03:11:39.535Z,0.00
2018-09-27T03:12:39.409Z,0.00
2018-09-27T03:13:39.283Z,0.00
2018-09-27T03:14:39.155Z,0.00
2018-09-27T03:15:39.026Z,0.00
2018-09-27T03:16:38.901Z,0.00
2018-09-27T03:17:38.776Z,0.00
2018-09-27T03:18:38.647Z,0.00
2018-09-27T03:19:38.519Z,0.00
2018-09-27T03:20:38.393Z,0.00
2018-09-27T03:21:38.269Z,0.00
2018-09-27T03:22:38.142Z,0.00
2018-09-27T03:23:38.012Z,0.00
2018-09-27T03:24:37.887Z,0.00
2018-09-27T03:25:37.770Z,0.00
2018-09-27T03:26:37.639Z,0.00
2018-09-27T03:27:37.505Z,0.00
2018-09-27T03:28:37.384Z,0.00
2018-09-27T03:29:37.250Z,0.00
2018-09-27T03:30:37.125Z,0.00
2018-09-27T03:31:36.998Z,0.00
2018-09-27T03:32:36.872Z,0.00
2018-09-27T03:33:36.747Z,0.00
2018-09-27T03:34:36.620Z,0.00
2018-09-27T03:35:36.490Z,0.00
2018-09-27T03:36:36.365Z,0.00
2018-09-27T03:37:36.235Z,0.00
2018-09-27T03:38:36.111Z,0.00
2018-09-27T03:39:36.019Z,0.00
2018-09-27T03:40:35.878Z,0.00
2018-09-27T03:41:35.729Z,0.00
2018-09-27T03:42:35.604Z,0.00
2018-09-27T03:43:35.474Z,0.00
2018-09-27T03:44:35.347Z,0.00
2018-09-27T03:45:35.222Z,0.00
2018-09-27T03:46:35.095Z,0.00
2018-09-27T03:47:34.966Z,0.00
2018-09-27T03:48:34.840Z,0.00
2018-09-27T03:49:34.713Z,0.00
2018-09-27T03:50:34.589Z,0.00
2018-09-27T03:51:34.462Z,0.00
2018-09-27T03:52:34.333Z,0.00
2018-09-27T03:53:34.206Z,0.00
2018-09-27T03:54:34.080Z,0.00
2018-09-27T03:55:33.951Z,0.00
2018-09-27T03:56:33.825Z,0.00
2018-09-27T03:57:33.699Z,0.00
2018-09-27T03:58:33.570Z,0.00
2018-09-27T03:59:33.444Z,0.00
2018-09-27T04:00:33.318Z,0.00
2018-09-27T04:01:33.193Z,0.00
2018-09-27T04:02:33.063Z,0.00
2018-09-27T04:03:32.937Z,0.00
2018-09-27T04:04:32.809Z,0.00
2018-09-27T04:05:32.681Z,0.00
2018-09-27T04:06:32.578Z,0.00
2018-09-27T04:07:32.431Z,0.00
2018-09-27T04:08:32.303Z,0.00
2018-09-27T04:09:32.176Z,0.00
2018-09-27T04:10:32.048Z,0.00
2018-09-27T04:11:31.927Z,0.00
2018-09-27T04:12:31.840Z,0.00
2018-09-27T04:13:31.668Z,0.00
2018-09-27T04:14:31.542Z,0.00
2018-09-27T04:15:31.437Z,0.00
2018-09-27T04:16:31.297Z,0.00
2018-09-27T04:17:31.161Z,0.00
2018-09-27T04:18:31.033Z,0.00
2018-09-27T04:19:30.906Z,0.00
2018-09-27T04:20:30.778Z,0.00
2018-09-27T04:21:30.768Z,0.00
2018-09-27T04:22:30.527Z,0.00
2018-09-27T04:23:30.396Z,0.00
2018-09-27T04:24:30.273Z,0.00
2018-09-27T04:25:30.144Z,0.00
2018-09-27T04:26:30.016Z,0.00
2018-09-27T04:27:29.891Z,0.00
2018-09-27T04:28:29.762Z,0.00
2018-09-27T04:29:29.635Z,0.00
2018-09-27T04:30:29.509Z,0.00
2018-09-27T04:31:29.406Z,0.00
2018-09-27T04:32:29.256Z,0.00
2018-09-27T04:33:29.130Z,0.00
2018-09-27T04:34:29.001Z,0.00
2018-09-27T04:35:28.874Z,0.00
2018-09-27T04:36:28.747Z,0.00
2018-09-27T04:37:28.626Z,0.00
2018-09-27T04:38:28.497Z,0.00
2018-09-27T04:39:28.367Z,0.00
2018-09-27T04:40:28.242Z,0.00
2018-09-27T04:41:28.112Z,0.00
2018-09-27T04:42:27.987Z,0.00
2018-09-27T04:43:27.859Z,0.00
2018-09-27T04:44:27.731Z,0.00
2018-09-27T04:45:27.607Z,0.00
2018-09-27T04:46:27.477Z,0.00
2018-09-27T04:47:27.354Z,0.00
2018-09-27T04:48:27.223Z,0.00
2018-09-27T04:49:27.096Z,4.00
2018-09-27T04:50:26.975Z,4.00
2018-09-27T04:51:26.892Z,0.00
2018-09-27T04:52:26.722Z,4.00
2018-09-27T04:53:26.590Z,4.00
2018-09-27T04:54:26.477Z,4.00
2018-09-27T04:55:26.336Z,4.00
2018-09-27T04:56:26.208Z,4.00
2018-09-27T04:57:26.083Z,8.00
2018-09-27T04:58:25.958Z,8.00
2018-09-27T04:59:25.828Z,8.00
2018-09-27T05:00:25.704Z,8.00
2018-09-27T05:01:25.574Z,12.00
2018-09-27T05:02:25.449Z,16.00
2018-09-27T05:03:25.330Z,16.00
2018-09-27T05:04:25.196Z,16.00
2018-09-27T05:05:25.069Z,20.00
2018-09-27T05:06:24.970Z,24.00
2018-09-27T05:07:24.818Z,28.00
2018-09-27T05:08:24.686Z,32.00
2018-09-27T05:09:24.587Z,36.00
2018-09-27T05:10:24.434Z,40.00
2018-09-27T05:11:24.306Z,48.00
2018-09-27T05:12:24.180Z,52.00
2018-09-27T05:13:24.055Z,60.00
2018-09-27T05:14:23.926Z,64.00
2018-09-27T05:15:23.806Z,72.00
2018-09-27T05:16:23.673Z,76.00
2018-09-27T05:17:23.548Z,84.00
2018-09-27T05:18:23.421Z,92.00
2018-09-27T05:19:23.291Z,96.00
2018-09-27T05:20:23.167Z,104.00
2018-09-27T05:21:23.047Z,112.00
2018-09-27T05:22:22.910Z,120.00
2018-09-27T05:23:22.782Z,128.00
2018-09-27T05:24:22.661Z,132.00
2018-09-27T05:25:22.535Z,140.00
2018-09-27T05:26:22.407Z,148.00
2018-09-27T05:27:22.338Z,156.00
2018-09-27T05:28:22.151Z,160.00
2018-09-27T05:29:22.023Z,168.00
2018-09-27T05:30:21.900Z,172.00
2018-09-27T05:31:21.770Z,180.00
2018-09-27T05:32:21.641Z,188.00
2018-09-27T05:33:21.514Z,192.00
2018-09-27T05:34:21.387Z,200.00
2018-09-27T05:35:21.260Z,208.00
2018-09-27T05:36:21.131Z,212.00
2018-09-27T05:37:21.007Z,220.00
2018-09-27T05:38:20.886Z,224.00
2018-09-27T05:39:20.752Z,232.00
2018-09-27T05:40:20.628Z,236.00
2018-09-27T05:41:20.499Z,244.00
2018-09-27T05:42:20.372Z,248.00
2018-09-27T05:43:20.245Z,252.00
2018-09-27T05:44:20.118Z,256.00
2018-09-27T05:45:19.992Z,260.00
2018-09-27T05:46:19.864Z,264.00
2018-09-27T05:47:19.736Z,268.00
2018-09-27T05:48:19.617Z,276.00
2018-09-27T05:49:19.487Z,280.00
2018-09-27T05:50:19.358Z,284.00
2018-09-27T05:51:19.231Z,288.00
2018-09-27T05:52:19.103Z,288.00
2018-09-27T05:53:18.982Z,296.00
2018-09-27T05:54:18.852Z,300.00
2018-09-27T05:55:18.725Z,300.00
2018-09-27T05:56:18.597Z,308.00
2018-09-27T05:57:18.470Z,308.00
2018-09-27T05:58:18.341Z,312.00
2018-09-27T05:59:18.214Z,316.00
2018-09-27T06:00:18.089Z,316.00
2018-09-27T06:01:17.964Z,324.00
2018-09-27T06:02:17.837Z,324.00
2018-09-27T06:03:17.709Z,328.00
2018-09-27T06:04:17.582Z,328.00
2018-09-27T06:05:17.453Z,332.00
2018-09-27T06:06:17.326Z,332.00
2018-09-27T06:07:17.199Z,340.00
2018-09-27T06:08:17.075Z,340.00
2018-09-27T06:09:16.945Z,344.00
2018-09-27T06:10:16.820Z,344.00
2018-09-27T06:11:16.763Z,348.00
2018-09-27T06:12:16.567Z,352.00
2018-09-27T06:13:16.442Z,352.00
2018-09-27T06:14:16.313Z,356.00
2018-09-27T06:15:16.185Z,356.00
2018-09-27T06:16:16.058Z,356.00
2018-09-27T06:17:15.932Z,360.00
2018-09-27T06:18:15.804Z,360.00
2018-09-27T06:19:15.712Z,364.00
2018-09-27T06:20:15.550Z,364.00
2018-09-27T06:21:15.422Z,368.00
2018-09-27T06:22:15.295Z,368.00
2018-09-27T06:23:15.169Z,368.00
2018-09-27T06:24:15.041Z,372.00
2018-09-27T06:25:14.918Z,372.00
2018-09-27T06:26:14.849Z,376.00
2018-09-27T06:27:14.662Z,380.00
2018-09-27T06:28:14.536Z,392.00
2018-09-27T06:29:14.414Z,432.00
2018-09-27T06:30:14.281Z,528.00
2018-09-27T06:31:14.155Z,700.00
2018-09-27T06:32:14.028Z,880.00
2018-09-27T06:33:13.906Z,1004.00
2018-09-27T06:34:13.776Z,1064.00
2018-09-27T06:35:13.717Z,1072.00
2018-09-27T06:36:13.524Z,1084.00
2018-09-27T06:37:13.396Z,1088.00
2018-09-27T06:38:13.271Z,1096.00
2018-09-27T06:39:13.141Z,1104.00
2018-09-27T06:40:13.016Z,1112.00
2018-09-27T06:41:12.891Z,1112.00
2018-09-27T06:42:12.767Z,1116.00
2018-09-27T06:43:12.642Z,1124.00
2018-09-27T06:44:12.513Z,1128.00
2018-09-27T06:45:12.387Z,1136.00
2018-09-27T06:46:12.263Z,1140.00
2018-09-27T06:47:12.138Z,1148.00
2018-09-27T06:48:12.074Z,1152.00
2018-09-27T06:49:11.887Z,1156.00
2018-09-27T06:50:11.760Z,1160.00
2018-09-27T06:51:11.636Z,1168.00
2018-09-27T06:52:11.510Z,1172.00
2018-09-27T06:53:11.387Z,1180.00
2018-09-27T06:54:11.261Z,1188.00
2018-09-27T06:55:11.241Z,1192.00
2018-09-27T06:56:11.057Z,1196.00
2018-09-27T06:57:10.889Z,1204.00
2018-09-27T06:58:10.776Z,1204.00
2018-09-27T06:59:10.639Z,1212.00
2018-09-27T07:00:10.514Z,1216.00
2018-09-27T07:01:10.391Z,1220.00
2018-09-27T07:02:10.266Z,1228.00
2018-09-27T07:03:10.141Z,1232.00
2018-09-27T07:04:10.021Z,1236.00
2018-09-27T07:05:09.897Z,1240.00
2018-09-27T07:06:09.773Z,1244.00
2018-09-27T07:07:09.689Z,1252.00
2018-09-27T07:08:09.525Z,1256.00
2018-09-27T07:09:09.404Z,1268.00
2018-09-27T07:10:09.279Z,1272.00
2018-09-27T07:11:09.155Z,1276.00
2018-09-27T07:12:09.093Z,1280.00
2018-09-27T07:13:08.910Z,1284.00
2018-09-27T07:14:08.788Z,1292.00
2018-09-27T07:15:08.664Z,1300.00
2018-09-27T07:16:08.541Z,1304.00
2018-09-27T07:17:08.419Z,1308.00
2018-09-27T07:18:08.296Z,1312.00
2018-09-27T07:19:08.172Z,1316.00
2018-09-27T07:20:08.068Z,1324.00
2018-09-27T07:21:07.930Z,1332.00
2018-09-27T07:22:07.807Z,1332.00
2018-09-27T07:23:07.682Z,1340.00
2018-09-27T07:24:07.560Z,1348.00
2018-09-27T07:25:07.495Z,1360.00
2018-09-27T07:26:07.330Z,1364.00
2018-09-27T07:27:07.198Z,1364.00
2018-09-27T07:28:07.073Z,1368.00
2018-09-27T07:29:06.951Z,1376.00
2018-09-27T07:30:06.828Z,1380.00
2018-09-27T07:31:06.764Z,1388.00
2018-09-27T07:32:06.586Z,1392.00
2018-09-27T07:33:06.465Z,1396.00
2018-09-27T07:34:06.342Z,1400.00
2018-09-27T07:35:06.218Z,1408.00
2018-09-27T07:36:06.096Z,1412.00
2018-09-27T07:37:05.977Z,1420.00
2018-09-27T07:38:05.857Z,1424.00
2018-09-27T07:39:05.738Z,1424.00
2018-09-27T07:40:05.614Z,1432.00
2018-09-27T07:41:05.492Z,1436.00
2018-09-27T07:42:05.369Z,1440.00
2018-09-27T07:43:05.249Z,1440.00
2018-09-27T07:44:05.129Z,1448.00
2018-09-27T07:45:05.008Z,1448.00
2018-09-27T07:46:04.886Z,1452.00
2018-09-27T07:47:04.764Z,1460.00
2018-09-27T07:48:04.643Z,1460.00
2018-09-27T07:49:04.521Z,1464.00
2018-09-27T07:50:04.405Z,1468.00
2018-09-27T07:51:04.281Z,1472.00
2018-09-27T07:52:04.164Z,1476.00
2018-09-27T07:53:04.039Z,1484.00
2018-09-27T07:54:03.919Z,1488.00
2018-09-27T07:55:03.795Z,1488.00
2018-09-27T07:56:03.676Z,1496.00
2018-09-27T07:57:03.556Z,1496.00
2018-09-27T07:58:03.437Z,1500.00
2018-09-27T07:59:03.313Z,1508.00
2018-09-27T08:00:03.202Z,1516.00
2018-09-27T08:01:03.072Z,1524.00
2018-09-27T08:02:02.952Z,1528.00
2018-09-27T08:03:02.860Z,1536.00
2018-09-27T08:04:02.792Z,1540.00
2018-09-27T08:05:02.593Z,1548.00
2018-09-27T08:06:02.476Z,1548.00
2018-09-27T08:07:02.349Z,1556.00
2018-09-27T08:08:02.229Z,1560.00
2018-09-27T08:09:02.109Z,1564.00
2018-09-27T08:10:01.989Z,1568.00
2018-09-27T08:11:01.950Z,1576.00
2018-09-27T08:12:01.830Z,1580.00
2018-09-27T08:13:01.627Z,1584.00
2018-09-27T08:14:01.509Z,1588.00
2018-09-27T08:15:01.388Z,1592.00
2018-09-27T08:16:01.270Z,1592.00
2018-09-27T08:17:01.289Z,1604.00
2018-09-27T08:18:01.028Z,1604.00
2018-09-27T08:19:00.910Z,1612.00
2018-09-27T08:20:00.786Z,1616.00
2018-09-27T08:21:00.763Z,1620.00
2018-09-27T08:22:00.548Z,1624.00
2018-09-27T08:23:00.427Z,1628.00
2018-09-27T08:24:00.391Z,1632.00
2018-09-27T08:25:00.185Z,1640.00
2018-09-27T08:26:00.067Z,1644.00
2018-09-27T08:26:59.945Z,1648.00
2018-09-27T08:27:59.825Z,1652.00
2018-09-27T08:28:59.706Z,1656.00
2018-09-27T08:29:59.589Z,1660.00
2018-09-27T08:30:59.516Z,1664.00
2018-09-27T08:31:59.349Z,1664.00
2018-09-27T08:32:59.229Z,1672.00
2018-09-27T08:33:59.107Z,1676.00
2018-09-27T08:34:58.988Z,1676.00
2018-09-27T08:35:58.873Z,1680.00
2018-09-27T08:36:58.750Z,1684.00
2018-09-27T08:37:58.632Z,1688.00
2018-09-27T08:38:58.515Z,1692.00
2018-09-27T08:39:58.391Z,1692.00
2018-09-27T08:40:58.269Z,1696.00
2018-09-27T08:41:58.152Z,1704.00
2018-09-27T08:42:58.032Z,1704.00
2018-09-27T08:43:57.917Z,1704.00
2018-09-27T08:44:57.915Z,1712.00
2018-09-27T08:45:57.734Z,1716.00
2018-09-27T08:46:57.556Z,1716.00
2018-09-27T08:47:57.442Z,1720.00
2018-09-27T08:48:57.320Z,1728.00
2018-09-27T08:49:57.198Z,1732.00
2018-09-27T08:50:57.085Z,1740.00
2018-09-27T08:51:56.962Z,1744.00
2018-09-27T08:52:56.848Z,1752.00
2018-09-27T08:53:56.727Z,1760.00
2018-09-27T08:54:56.608Z,1768.00
2018-09-27T08:55:56.593Z,1776.00
2018-09-27T08:56:56.372Z,1784.00
2018-09-27T08:57:56.253Z,1792.00
2018-09-27T08:58:56.133Z,1800.00
2018-09-27T08:59:56.014Z,1812.00
2018-09-27T09:00:55.897Z,1820.00
2018-09-27T09:01:55.777Z,1824.00
2018-09-27T09:02:55.661Z,1840.00
2018-09-27T09:03:55.573Z,1844.00
2018-09-27T09:04:55.422Z,1848.00
2018-09-27T09:05:55.305Z,1860.00
2018-09-27T09:06:55.186Z,1872.00
2018-09-27T09:07:55.069Z,1876.00
2018-09-27T09:08:54.949Z,1892.00
2018-09-27T09:09:54.835Z,1896.00
2018-09-27T09:10:54.714Z,1912.00
2018-09-27T09:11:54.610Z,1920.00
2018-09-27T09:12:54.478Z,1928.00
2018-09-27T09:13:54.363Z,1936.00
2018-09-27T09:14:54.243Z,1948.00
2018-09-27T09:15:54.125Z,1956.00
2018-09-27T09:16:54.009Z,1964.00
2018-09-27T09:17:53.891Z,1972.00
2018-09-27T09:18:53.770Z,1976.00
2018-09-27T09:19:53.655Z,1980.00
2018-09-27T09:20:53.538Z,1988.00
2018-09-27T09:21:53.418Z,1996.00
2018-09-27T09:22:53.301Z,2000.00
2018-09-27T09:23:53.187Z,2004.00
2018-09-27T09:24:53.066Z,2020.00
2018-09-27T09:25:52.954Z,2016.00
2018-09-27T09:26:52.834Z,2024.00
2018-09-27T09:27:52.713Z,2032.00
2018-09-27T09:28:52.596Z,2040.00
2018-09-27T09:29:52.509Z,2044.00
2018-09-27T09:30:52.360Z,2056.00
2018-09-27T09:31:52.242Z,2064.00
2018-09-27T09:32:52.130Z,2068.00
2018-09-27T09:33:52.013Z,2076.00
2018-09-27T09:34:51.892Z,2088.00
2018-09-27T09:35:51.794Z,2096.00
2018-09-27T09:36:51.657Z,2104.00
2018-09-27T09:37:51.542Z,2116.00
2018-09-27T09:38:51.424Z,2128.00
2018-09-27T09:39:51.308Z,2132.00
2018-09-27T09:40:51.191Z,2144.00
2018-09-27T09:41:51.073Z,2152.00
2018-09-27T09:42:50.954Z,2164.00
2018-09-27T09:43:50.840Z,2160.00
2018-09-27T09:44:50.723Z,2156.00
2018-09-27T09:45:50.604Z,2148.00
2018-09-27T09:46:50.488Z,2140.00
2018-09-27T09:47:50.372Z,2140.00
2018-09-27T09:48:50.256Z,2136.00
2018-09-27T09:49:50.173Z,2140.00
2018-09-27T09:50:50.029Z,2144.00
2018-09-27T09:51:49.906Z,2156.00
2018-09-27T09:52:49.791Z,2164.00
2018-09-27T09:53:49.673Z,2180.00
2018-09-27T09:54:49.559Z,2188.00
2018-09-27T09:55:49.439Z,2200.00
2018-09-27T09:56:49.325Z,2208.00
2018-09-27T09:57:49.205Z,2208.00
2018-09-27T09:58:49.089Z,2216.00
2018-09-27T09:59:48.978Z,2216.00
2018-09-27T10:00:48.860Z,2220.00
2018-09-27T10:01:48.746Z,2236.00
2018-09-27T10:02:48.628Z,2248.00
2018-09-27T10:03:48.511Z,2272.00
2018-09-27T10:04:48.394Z,2280.00
2018-09-27T10:05:48.277Z,2284.00
2018-09-27T10:06:48.163Z,2288.00
2018-09-27T10:07:48.046Z,2292.00
2018-09-27T10:08:47.953Z,2292.00
2018-09-27T10:09:47.816Z,2292.00
2018-09-27T10:10:47.699Z,2296.00
2018-09-27T10:11:47.584Z,2296.00
2018-09-27T10:12:47.472Z,2296.00
2018-09-27T10:13:47.356Z,2296.00
2018-09-27T10:14:47.236Z,2300.00
2018-09-27T10:15:47.119Z,2300.00
2018-09-27T10:16:47.010Z,2300.00
2018-09-27T10:17:46.890Z,2300.00
2018-09-27T10:18:46.771Z,2304.00
2018-09-27T10:19:46.661Z,2304.00
2018-09-27T10:20:46.545Z,2308.00
2018-09-27T10:21:46.501Z,2312.00
2018-09-27T10:22:46.312Z,2308.00
2018-09-27T10:23:46.203Z,2308.00
2018-09-27T10:24:46.086Z,2312.00
2018-09-27T10:25:45.972Z,2312.00
2018-09-27T10:26:45.856Z,2312.00
2018-09-27T10:27:45.740Z,2316.00
2018-09-27T10:28:45.623Z,2320.00
2018-09-27T10:29:45.508Z,2324.00
2018-09-27T10:30:45.391Z,2328.00
2018-09-27T10:31:45.276Z,2332.00
2018-09-27T10:32:45.161Z,2336.00
2018-09-27T10:33:45.049Z,2336.00
2018-09-27T10:34:45.015Z,2336.00
2018-09-27T10:35:44.818Z,2336.00
2018-09-27T10:36:44.702Z,2336.00
2018-09-27T10:37:44.588Z,2332.00
2018-09-27T10:38:44.472Z,2324.00
2018-09-27T10:39:44.358Z,2324.00
2018-09-27T10:40:44.242Z,2312.00
2018-09-27T10:41:44.127Z,2308.00
2018-09-27T10:42:44.014Z,2308.00
2018-09-27T10:43:43.896Z,2308.00
2018-09-27T10:44:43.785Z,2304.00
2018-09-27T10:45:43.667Z,2304.00
2018-09-27T10:46:43.624Z,2300.00
2018-09-27T10:47:43.438Z,2296.00
2018-09-27T10:48:43.322Z,2296.00
2018-09-27T10:49:43.210Z,2292.00
2018-09-27T10:50:43.093Z,2280.00
2018-09-27T10:51:42.979Z,2280.00
2018-09-27T10:52:42.862Z,2260.00
2018-09-27T10:53:42.749Z,2252.00
2018-09-27T10:54:42.633Z,2216.00
2018-09-27T10:55:42.521Z,2196.00
2018-09-27T10:56:42.404Z,2160.00
2018-09-27T10:57:42.289Z,2124.00
2018-09-27T10:58:42.175Z,2092.00
2018-09-27T10:59:42.119Z,2068.00
2018-09-27T11:00:41.942Z,2060.00
2018-09-27T11:01:41.829Z,2044.00
2018-09-27T11:02:41.711Z,1996.00
2018-09-27T11:03:41.597Z,1984.00
2018-09-27T11:04:41.482Z,1976.00
2018-09-27T11:05:41.450Z,1960.00
2018-09-27T11:06:41.252Z,1936.00
2018-09-27T11:07:41.136Z,1940.00
2018-09-27T11:08:41.021Z,1944.00
2018-09-27T11:09:40.907Z,1920.00
2018-09-27T11:10:40.789Z,1912.00
2018-09-27T11:11:40.675Z,1872.00
2018-09-27T11:12:40.558Z,1840.00
2018-09-27T11:13:40.444Z,1824.00
2018-09-27T11:14:40.329Z,1812.00
2018-09-27T11:15:40.214Z,1816.00
2018-09-27T11:16:40.181Z,1816.00
2018-09-27T11:17:39.982Z,1812.00
2018-09-27T11:18:39.871Z,1832.00
2018-09-27T11:19:39.749Z,1848.00
2018-09-27T11:20:39.635Z,1848.00
2018-09-27T11:21:39.531Z,1828.00
2018-09-27T11:22:39.403Z,1828.00
2018-09-27T11:23:39.289Z,1820.00
2018-09-27T11:24:39.176Z,1808.00
2018-09-27T11:25:39.058Z,1800.00
2018-09-27T11:26:38.942Z,1788.00
2018-09-27T11:27:38.884Z,1788.00
2018-09-27T11:28:38.711Z,1800.00
2018-09-27T11:29:38.595Z,1828.00
2018-09-27T11:30:38.480Z,1860.00
2018-09-27T11:31:38.364Z,1880.00
2018-09-27T11:32:38.249Z,1900.00
2018-09-27T11:33:38.134Z,1880.00
2018-09-27T11:34:38.017Z,1888.00
2018-09-27T11:35:37.901Z,1888.00
2018-09-27T11:36:37.786Z,1900.00
2018-09-27T11:37:37.668Z,1896.00
2018-09-27T11:38:37.572Z,1892.00
2018-09-27T11:39:37.436Z,1864.00
2018-09-27T11:40:37.319Z,1844.00
2018-09-27T11:41:37.203Z,1820.00
2018-09-27T11:42:37.087Z,1820.00
2018-09-27T11:43:36.969Z,1820.00
2018-09-27T11:44:36.855Z,1836.00
2018-09-27T11:45:36.738Z,1848.00
2018-09-27T11:46:36.622Z,1868.00
2018-09-27T11:47:36.504Z,1884.00
2018-09-27T11:48:36.393Z,1864.00
2018-09-27T11:49:36.380Z,1868.00
2018-09-27T11:50:36.158Z,1860.00
2018-09-27T11:51:36.039Z,1864.00
2018-09-27T11:52:35.925Z,1864.00
2018-09-27T11:53:35.806Z,1836.00
2018-09-27T11:54:35.688Z,1844.00
2018-09-27T11:55:35.575Z,1824.00
2018-09-27T11:56:35.456Z,1816.00
2018-09-27T11:57:35.339Z,1804.00
2018-09-27T11:58:35.224Z,1808.00
2018-09-27T11:59:35.106Z,1796.00
2018-09-27T12:00:35.070Z,1788.00
2018-09-27T12:01:34.903Z,1776.00
2018-09-27T12:02:34.758Z,1768.00
2018-09-27T12:03:34.641Z,1776.00
2018-09-27T12:04:34.521Z,1788.00
2018-09-27T12:05:34.409Z,1796.00
2018-09-27T12:06:34.356Z,1796.00
2018-09-27T12:07:34.285Z,1804.00
2018-09-27T12:08:34.056Z,1808.00
2018-09-27T12:09:33.938Z,1812.00
2018-09-27T12:10:33.821Z,1804.00
2018-09-27T12:11:33.706Z,1800.00
2018-09-27T12:12:33.589Z,1788.00
2018-09-27T12:13:33.504Z,1784.00
2018-09-27T12:14:33.374Z,1780.00
2018-09-27T12:15:33.240Z,1772.00
2018-09-27T12:16:33.151Z,1760.00
2018-09-27T12:17:33.077Z,1752.00
2018-09-27T12:18:32.884Z,1752.00
2018-09-27T12:19:32.835Z,1748.00
2018-09-27T12:20:32.651Z,1740.00
2018-09-27T12:21:32.543Z,1744.00
2018-09-27T12:22:32.417Z,1740.00
2018-09-27T12:23:32.306Z,1736.00
2018-09-27T12:24:32.183Z,1736.00
2018-09-27T12:25:32.115Z,1736.00
2018-09-27T12:26:31.947Z,1736.00
2018-09-27T12:27:31.834Z,1736.00
2018-09-27T12:28:31.775Z,1740.00
2018-09-27T12:29:31.596Z,1748.00
2018-09-27T12:30:31.479Z,1760.00
2018-09-27T12:31:31.364Z,1768.00
2018-09-27T12:32:31.245Z,1772.00
2018-09-27T12:33:31.129Z,1792.00
2018-09-27T12:34:31.009Z,1804.00